createdAt,value
2022-09-07T00:02:22.439Z,21.80
2022-09-07T00:04:49.196Z,21.70
2022-09-07T00:07:15.931Z,21.70
2022-09-07T00:09:42.671Z,21.60
2022-09-07T00:12:09.925Z,21.60
2022-09-07T00:14:36.731Z,21.60
2022-09-07T00:17:03.529Z,21.60
2022-09-07T00:19:30.332Z,21.50
2022-09-07T00:21:57.031Z,21.50
2022-09-07T00:24:23.916Z,21.60
2022-09-07T00:26:50.627Z,21.60
2022-09-07T00:29:17.333Z,21.60
2022-09-07T00:31:44.161Z,21.60
2022-09-07T00:34:11.152Z,21.70
2022-09-07T00:36:37.895Z,21.60
2022-09-07T00:39:05.887Z,21.60
2022-09-07T00:41:32.951Z,21.60
2022-09-07T00:44:38.157Z,21.60
2022-09-07T00:47:16.040Z,21.60
2022-09-07T00:49:45.750Z,21.60
2022-09-07T00:52:13.404Z,21.60
2022-09-07T00:54:45.155Z,21.70
2022-09-07T00:57:12.488Z,21.70
2022-09-07T00:59:45.721Z,21.70
2022-09-07T01:02:15.787Z,21.80
2022-09-07T01:04:43.731Z,21.90
2022-09-07T01:07:10.692Z,22.00
2022-09-07T01:09:38.344Z,22.00
2022-09-07T01:12:05.747Z,22.10
2022-09-07T01:14:41.033Z,22.20
2022-09-07T01:17:38.452Z,22.30
2022-09-07T01:20:42.795Z,22.30
2022-09-07T01:23:27.609Z,22.40
2022-09-07T01:26:18.408Z,22.60
2022-09-07T01:28:49.513Z,22.50
2022-09-07T01:31:25.397Z,22.60
2022-09-07T01:34:20.439Z,22.70
2022-09-07T01:37:14.439Z,22.70
2022-09-07T01:39:51.497Z,22.80
2022-09-07T01:42:23.624Z,22.80
2022-09-07T01:44:56.033Z,22.80
2022-09-07T01:47:39.985Z,22.80
2022-09-07T01:50:16.908Z,22.80
2022-09-07T01:53:01.208Z,22.80
2022-09-07T01:55:42.664Z,22.80
2022-09-07T01:58:19.271Z,22.70
2022-09-07T02:00:50.970Z,22.70
2022-09-07T02:03:30.884Z,22.70
2022-09-07T02:06:05.268Z,22.70
2022-09-07T02:08:55.574Z,22.70
2022-09-07T02:11:29.088Z,22.70
2022-09-07T02:14:01.414Z,22.70
2022-09-07T02:16:30.076Z,22.80
2022-09-07T02:19:02.751Z,22.80
2022-09-07T02:21:34.783Z,22.80
2022-09-07T02:24:07.233Z,22.80
2022-09-07T02:26:37.491Z,22.80
2022-09-07T02:29:04.438Z,22.80
2022-09-07T02:31:31.366Z,22.80
2022-09-07T02:33:58.296Z,22.80
2022-09-07T02:36:28.287Z,22.80
2022-09-07T02:38:55.009Z,22.80
2022-09-07T02:41:34.994Z,22.90
2022-09-07T02:44:04.561Z,22.80
2022-09-07T02:46:40.503Z,22.80
2022-09-07T02:49:24.443Z,22.80
2022-09-07T02:52:12.336Z,22.80
2022-09-07T02:54:46.131Z,22.80
2022-09-07T02:57:27.418Z,22.70
2022-09-07T03:00:07.225Z,22.80
2022-09-07T03:03:09.412Z,22.70
2022-09-07T03:05:41.769Z,22.80
2022-09-07T03:08:31.515Z,22.90
2022-09-07T03:10:59.181Z,22.80
2022-09-07T03:13:28.954Z,22.80
2022-09-07T03:15:56.813Z,22.90
2022-09-07T03:18:25.436Z,22.90
2022-09-07T03:20:52.631Z,22.90
2022-09-07T03:23:19.394Z,22.90
2022-09-07T03:25:47.623Z,22.90
2022-09-07T03:28:14.489Z,22.90
2022-09-07T03:30:47.123Z,22.90
2022-09-07T03:33:17.760Z,22.90
2022-09-07T03:35:45.519Z,22.80
2022-09-07T03:38:12.704Z,22.90
2022-09-07T03:40:39.620Z,22.80
2022-09-07T03:43:06.541Z,22.90
2022-09-07T03:45:33.713Z,22.80
2022-09-07T03:48:00.464Z,22.90
2022-09-07T03:50:27.248Z,22.90
2022-09-07T03:52:53.961Z,22.80
2022-09-07T03:55:21.432Z,22.80
2022-09-07T03:57:48.144Z,22.80
2022-09-07T04:00:15.003Z,22.80
2022-09-07T04:02:42.156Z,22.70
2022-09-07T04:05:09.363Z,22.80
2022-09-07T04:07:36.446Z,22.80
2022-09-07T04:10:04.136Z,22.70
2022-09-07T04:12:30.908Z,22.80
2022-09-07T04:14:57.639Z,22.70
2022-09-07T04:17:24.401Z,22.70
2022-09-07T04:19:51.115Z,22.70
2022-09-07T04:22:17.876Z,22.70
2022-09-07T04:24:44.590Z,22.60
2022-09-07T04:27:11.339Z,22.70
2022-09-07T04:29:38.272Z,22.70
2022-09-07T04:32:05.110Z,22.60
2022-09-07T04:34:31.903Z,22.60
2022-09-07T04:36:58.623Z,22.60
2022-09-07T04:39:25.546Z,22.70
2022-09-07T04:41:52.344Z,22.70
2022-09-07T04:44:19.269Z,22.70
2022-09-07T04:46:45.964Z,22.70
2022-09-07T04:49:12.740Z,22.70
2022-09-07T04:51:42.514Z,22.70
2022-09-07T04:54:10.131Z,22.70
2022-09-07T04:56:37.015Z,22.70
2022-09-07T04:59:04.300Z,22.80
2022-09-07T05:01:31.404Z,22.70
2022-09-07T05:04:01.223Z,22.70
2022-09-07T05:06:28.801Z,22.60
2022-09-07T05:08:55.692Z,22.70
2022-09-07T05:11:28.833Z,22.60
2022-09-07T05:13:58.131Z,22.60
2022-09-07T05:16:25.899Z,22.50
2022-09-07T05:18:54.996Z,22.50
2022-09-07T05:21:25.367Z,22.50
2022-09-07T05:23:53.901Z,22.50
2022-09-07T05:26:22.608Z,22.50
2022-09-07T05:28:50.393Z,22.50
2022-09-07T05:31:20.295Z,22.50
2022-09-07T05:36:39.206Z,22.50
2022-09-07T05:39:07.224Z,22.50
2022-09-07T05:41:33.953Z,22.50
2022-09-07T05:46:48.109Z,22.50
2022-09-07T05:49:14.847Z,22.50
2022-09-07T05:51:41.580Z,22.50
2022-09-07T05:54:08.448Z,22.40
2022-09-07T05:56:36.156Z,22.40
2022-09-07T05:59:03.643Z,22.40
2022-09-07T06:01:30.822Z,22.40
2022-09-07T06:03:57.841Z,22.40
2022-09-07T06:06:24.722Z,22.40
2022-09-07T06:08:53.402Z,22.50
2022-09-07T06:11:22.306Z,22.40
2022-09-07T06:13:49.858Z,22.40
2022-09-07T06:16:18.558Z,22.50
2022-09-07T06:18:48.143Z,22.40
2022-09-07T06:21:18.756Z,22.40
2022-09-07T06:23:46.928Z,22.50
2022-09-07T06:26:15.180Z,22.50
2022-09-07T06:28:49.716Z,22.40
2022-09-07T06:31:20.347Z,22.40
2022-09-07T06:33:48.081Z,22.40
2022-09-07T06:36:20.486Z,22.40
2022-09-07T06:38:47.965Z,22.40
2022-09-07T06:44:07.856Z,22.30
2022-09-07T06:49:21.447Z,22.50
2022-09-07T06:51:48.175Z,22.50
2022-09-07T06:57:08.485Z,22.60
2022-09-07T06:59:35.706Z,22.70
2022-09-07T07:02:02.492Z,22.90
2022-09-07T07:04:29.427Z,23.10
2022-09-07T07:06:56.169Z,23.20
2022-09-07T07:09:23.045Z,23.40
2022-09-07T07:11:49.776Z,23.50
2022-09-07T07:14:17.875Z,23.60
2022-09-07T07:16:45.676Z,23.70
2022-09-07T07:19:12.919Z,23.80
2022-09-07T07:22:05.575Z,24.00
2022-09-07T07:24:26.411Z,24.10
2022-09-07T07:26:53.171Z,24.30
2022-09-07T07:29:21.907Z,24.30
2022-09-07T07:31:49.528Z,24.20
2022-09-07T07:34:16.372Z,24.20
2022-09-07T07:36:43.181Z,24.10
2022-09-07T07:41:59.030Z,24.00
2022-09-07T07:44:28.651Z,24.10
2022-09-07T07:46:55.555Z,24.00
2022-09-07T07:49:22.368Z,24.10
2022-09-07T07:54:36.935Z,24.60
2022-09-07T07:57:05.246Z,24.70
2022-09-07T07:59:32.031Z,24.70
2022-09-07T08:02:04.412Z,24.70
2022-09-07T08:04:35.199Z,24.70
2022-09-07T08:07:08.687Z,24.70
2022-09-07T08:09:41.185Z,24.80
2022-09-07T08:12:09.703Z,24.90
2022-09-07T08:14:40.834Z,25.10
2022-09-07T08:17:09.904Z,25.10
2022-09-07T08:19:36.680Z,25.10
2022-09-07T08:22:03.954Z,25.10
2022-09-07T08:24:34.619Z,25.10
2022-09-07T08:27:01.956Z,25.10
2022-09-07T08:29:32.571Z,25.10
2022-09-07T08:32:01.888Z,24.90
2022-09-07T08:34:28.671Z,24.90
2022-09-07T08:36:55.398Z,24.90
2022-09-07T08:39:22.244Z,24.80
2022-09-07T08:42:01.422Z,24.70
2022-09-07T08:44:31.834Z,24.80
2022-09-07T08:47:40.279Z,25.00
2022-09-07T08:50:33.551Z,25.20
2022-09-07T08:53:19.549Z,25.60
2022-09-07T08:55:51.719Z,25.80
2022-09-07T08:58:49.732Z,25.90
2022-09-07T09:01:31.047Z,26.00
2022-09-07T09:07:15.884Z,26.40
2022-09-07T09:09:55.011Z,26.50
2022-09-07T09:12:37.510Z,26.70
2022-09-07T09:15:33.626Z,26.90
2022-09-07T09:18:17.279Z,27.00
2022-09-07T09:21:02.501Z,27.20
2022-09-07T09:23:37.973Z,27.50
2022-09-07T09:26:12.105Z,27.90
2022-09-07T09:28:39.782Z,28.10
2022-09-07T09:31:06.840Z,28.40
2022-09-07T09:33:33.589Z,28.50
2022-09-07T09:36:02.072Z,28.50
2022-09-07T09:38:40.287Z,28.60
2022-09-07T09:41:12.640Z,28.60
2022-09-07T09:43:45.667Z,28.80
2022-09-07T09:46:34.235Z,28.70
2022-09-07T09:49:06.645Z,28.80
2022-09-07T09:54:42.051Z,28.90
2022-09-07T09:57:16.434Z,29.20
2022-09-07T10:00:01.945Z,29.50
2022-09-07T10:05:40.742Z,30.00
2022-09-07T10:08:24.846Z,30.20
2022-09-07T10:10:52.601Z,30.50
2022-09-07T10:13:35.197Z,30.50
2022-09-07T10:16:09.591Z,30.60
2022-09-07T10:18:41.730Z,30.80
2022-09-07T10:21:26.793Z,30.80
2022-09-07T10:24:15.508Z,30.70
2022-09-07T10:26:47.220Z,30.60
2022-09-07T10:29:29.875Z,30.50
2022-09-07T10:32:09.437Z,30.40
2022-09-07T10:34:52.544Z,30.50
2022-09-07T10:37:27.128Z,30.50
2022-09-07T10:40:31.803Z,30.70
2022-09-07T10:43:21.550Z,30.90
2022-09-07T10:46:01.456Z,31.00
2022-09-07T10:48:45.672Z,31.10
2022-09-07T10:51:43.075Z,31.10
2022-09-07T10:54:36.464Z,31.10
2022-09-07T10:57:27.505Z,31.10
2022-09-07T11:00:21.582Z,31.10
2022-09-07T11:03:25.846Z,31.10
2022-09-07T11:06:08.349Z,31.10
2022-09-07T11:09:17.872Z,31.20
2022-09-07T11:12:04.719Z,31.20
2022-09-07T11:14:54.767Z,31.50
2022-09-07T11:17:26.015Z,31.80
2022-09-07T11:20:17.289Z,32.20
2022-09-07T11:22:49.668Z,32.40
2022-09-07T11:25:33.487Z,32.60
2022-09-07T11:28:13.451Z,32.70
2022-09-07T11:30:49.900Z,33.00
2022-09-07T11:33:25.416Z,33.30
2022-09-07T11:35:59.639Z,33.50
2022-09-07T11:43:28.198Z,32.90
2022-09-07T11:46:04.932Z,31.70
2022-09-07T11:48:39.967Z,31.30
2022-09-07T11:51:12.970Z,30.80
2022-09-07T11:53:45.605Z,30.40
2022-09-07T11:56:20.979Z,30.10
2022-09-07T11:59:11.735Z,30.40
2022-09-07T12:02:02.200Z,31.00
2022-09-07T12:04:54.142Z,31.60
2022-09-07T12:08:04.734Z,31.80
2022-09-07T12:10:55.327Z,31.50
2022-09-07T12:13:32.138Z,31.40
2022-09-07T12:16:19.692Z,31.60
2022-09-07T12:19:11.915Z,32.10
2022-09-07T12:21:53.719Z,33.00
2022-09-07T12:24:41.408Z,33.20
2022-09-07T12:27:20.305Z,32.70
2022-09-07T12:30:10.449Z,32.40
2022-09-07T12:32:54.930Z,32.60
2022-09-07T12:35:31.636Z,32.40
2022-09-07T12:38:05.879Z,31.90
2022-09-07T12:40:33.226Z,32.30
2022-09-07T12:43:15.224Z,33.40
2022-09-07T12:45:44.648Z,33.30
2022-09-07T12:48:17.501Z,33.80
2022-09-07T12:51:06.251Z,34.70
2022-09-07T12:53:48.372Z,35.40
2022-09-07T12:56:36.814Z,35.30
2022-09-07T12:59:38.302Z,34.90
2022-09-07T13:02:18.965Z,34.70
2022-09-07T13:04:52.838Z,35.10
2022-09-07T13:07:34.881Z,35.30
2022-09-07T13:10:04.315Z,35.60
2022-09-07T13:12:55.245Z,35.80
2022-09-07T13:15:41.099Z,35.90
2022-09-07T13:18:28.205Z,35.90
2022-09-07T13:21:07.004Z,35.60
2022-09-07T13:23:37.917Z,35.40
2022-09-07T13:26:09.038Z,35.20
2022-09-07T13:28:54.814Z,35.00
2022-09-07T13:31:30.914Z,34.60
2022-09-07T13:33:57.717Z,34.00
2022-09-07T13:36:40.172Z,33.40
2022-09-07T13:39:12.659Z,33.10
2022-09-07T13:41:49.212Z,33.10
2022-09-07T13:44:25.669Z,33.10
2022-09-07T13:47:11.405Z,33.10
2022-09-07T13:49:56.074Z,32.80
2022-09-07T13:52:38.648Z,32.60
2022-09-07T13:55:26.826Z,32.30
2022-09-07T13:58:17.842Z,32.10
2022-09-07T14:00:56.390Z,31.80
2022-09-07T14:03:27.735Z,31.70
2022-09-07T14:06:22.480Z,31.70
2022-09-07T14:08:52.670Z,31.60
2022-09-07T14:11:28.945Z,31.60
2022-09-07T14:14:29.386Z,31.70
2022-09-07T14:17:04.055Z,31.60
2022-09-07T14:19:38.036Z,31.30
2022-09-07T14:22:22.304Z,31.20
2022-09-07T14:24:57.808Z,31.20
2022-09-07T14:27:30.316Z,31.00
2022-09-07T14:30:24.051Z,30.90
2022-09-07T14:32:53.404Z,30.80
2022-09-07T14:35:22.954Z,30.80
2022-09-07T14:37:50.601Z,30.70
2022-09-07T14:40:25.458Z,30.30
2022-09-07T14:42:54.035Z,30.00
2022-09-07T14:45:23.594Z,29.80
2022-09-07T14:47:52.677Z,29.70
2022-09-07T14:50:21.780Z,29.70
2022-09-07T14:55:43.900Z,29.60
2022-09-07T14:58:13.611Z,29.70
2022-09-07T15:00:43.612Z,29.60
2022-09-07T15:03:28.444Z,29.60
2022-09-07T15:06:01.129Z,29.50
2022-09-07T15:08:40.461Z,29.40
2022-09-07T15:11:35.674Z,29.30
2022-09-07T15:14:08.784Z,29.20
2022-09-07T15:16:39.115Z,29.10
2022-09-07T15:19:18.515Z,29.00
2022-09-07T15:21:45.797Z,29.00
2022-09-07T15:24:12.491Z,29.00
2022-09-07T15:27:04.314Z,29.10
2022-09-07T15:29:32.141Z,29.10
2022-09-07T15:32:04.297Z,29.10
2022-09-07T15:34:32.372Z,29.00
2022-09-07T15:37:00.183Z,29.00
2022-09-07T15:39:34.383Z,29.00
2022-09-07T15:42:59.483Z,29.00
2022-09-07T15:44:50.223Z,28.90
2022-09-07T15:50:05.964Z,28.90
2022-09-07T15:52:32.947Z,28.90
2022-09-07T15:54:59.672Z,29.00
2022-09-07T16:00:14.417Z,29.00
2022-09-07T16:05:31.187Z,29.00
2022-09-07T16:10:53.466Z,29.00
2022-09-07T16:13:20.871Z,28.90
2022-09-07T16:15:48.858Z,28.90
2022-09-07T16:18:17.964Z,28.80
2022-09-07T16:20:45.672Z,28.80
2022-09-07T16:23:15.217Z,28.70
2022-09-07T16:25:43.103Z,28.70
2022-09-07T16:28:10.195Z,28.70
2022-09-07T16:30:40.551Z,28.70
2022-09-07T16:33:07.902Z,28.60
2022-09-07T16:35:34.840Z,28.60
2022-09-07T16:40:50.755Z,28.60
2022-09-07T16:43:17.663Z,28.60
2022-09-07T16:48:32.884Z,28.50
2022-09-07T16:51:02.550Z,28.50
2022-09-07T16:53:31.760Z,28.50
2022-09-07T16:56:09.569Z,28.40
2022-09-07T16:58:38.383Z,28.40
2022-09-07T17:01:06.759Z,28.40
2022-09-07T17:03:34.148Z,28.30
2022-09-07T17:06:01.401Z,28.30
2022-09-07T17:08:28.463Z,28.30
2022-09-07T17:11:00.252Z,28.20
2022-09-07T17:13:27.345Z,28.20
2022-09-07T17:15:54.163Z,27.90
2022-09-07T17:19:28.880Z,28.00
2022-09-07T17:21:07.895Z,28.00
2022-09-07T17:23:44.531Z,28.10
2022-09-07T17:26:19.494Z,28.00
2022-09-07T17:28:49.911Z,28.10
2022-09-07T17:34:13.370Z,28.00
2022-09-07T17:36:40.620Z,28.00
2022-09-07T17:39:16.823Z,28.00
2022-09-07T17:41:45.278Z,28.00
2022-09-07T17:44:12.410Z,28.00
2022-09-07T17:46:39.594Z,27.90
2022-09-07T17:49:10.144Z,27.80
2022-09-07T17:51:37.035Z,27.70
2022-09-07T17:54:10.253Z,27.70
2022-09-07T17:56:38.695Z,27.50
2022-09-07T18:01:54.161Z,27.40
2022-09-07T18:04:21.620Z,27.30
2022-09-07T18:06:48.390Z,27.20
2022-09-07T18:09:15.275Z,27.10
2022-09-07T18:11:45.543Z,27.00
2022-09-07T18:14:14.397Z,26.90
2022-09-07T18:16:41.944Z,26.80
2022-09-07T18:19:08.809Z,26.70
2022-09-07T18:21:37.315Z,26.70
2022-09-07T18:24:07.595Z,26.60
2022-09-07T18:26:38.293Z,26.60
2022-09-07T18:29:10.452Z,26.50
2022-09-07T18:31:45.946Z,26.40
2022-09-07T18:34:12.860Z,26.40
2022-09-07T18:36:43.711Z,26.20
2022-09-07T18:39:10.793Z,26.20
2022-09-07T18:41:40.849Z,26.10
2022-09-07T18:45:27.331Z,26.00
2022-09-07T18:46:54.841Z,26.00
2022-09-07T18:49:21.553Z,25.90
2022-09-07T18:54:34.913Z,25.90
2022-09-07T18:57:01.647Z,25.80
2022-09-07T18:59:29.791Z,25.80
2022-09-07T19:02:01.520Z,25.80
2022-09-07T19:05:49.519Z,25.70
2022-09-07T19:07:17.012Z,25.70
2022-09-07T19:09:43.664Z,25.60
2022-09-07T19:12:10.439Z,25.60
2022-09-07T19:14:37.212Z,25.50
2022-09-07T19:17:03.976Z,25.50
2022-09-07T19:19:30.864Z,25.50
2022-09-07T19:21:58.194Z,25.40
2022-09-07T19:24:25.697Z,25.40
2022-09-07T19:26:55.728Z,25.30
2022-09-07T19:29:25.130Z,25.30
2022-09-07T19:32:06.575Z,25.20
2022-09-07T19:34:38.945Z,25.20
2022-09-07T19:37:07.386Z,25.10
2022-09-07T19:39:34.401Z,25.10
2022-09-07T19:42:03.950Z,25.10
2022-09-07T19:44:31.039Z,25.00
2022-09-07T19:46:57.898Z,25.00
2022-09-07T19:49:24.634Z,24.90
2022-09-07T19:51:51.942Z,24.80
2022-09-07T19:54:19.099Z,24.80
2022-09-07T19:56:45.992Z,24.80
2022-09-07T19:59:13.217Z,24.80
2022-09-07T20:01:40.603Z,24.80
2022-09-07T20:04:13.795Z,24.70
2022-09-07T20:06:42.857Z,24.70
2022-09-07T20:09:10.445Z,24.70
2022-09-07T20:11:37.210Z,24.60
2022-09-07T20:14:04.128Z,24.60
2022-09-07T20:16:33.781Z,24.50
2022-09-07T20:19:00.512Z,24.50
2022-09-07T20:21:27.236Z,24.40
2022-09-07T20:23:53.981Z,24.40
2022-09-07T20:26:21.747Z,24.40
2022-09-07T20:29:05.852Z,24.40
2022-09-07T20:31:41.659Z,24.30
2022-09-07T20:34:09.551Z,24.30
2022-09-07T20:36:36.631Z,24.30
2022-09-07T20:39:04.388Z,24.30
2022-09-07T20:41:33.853Z,24.30
2022-09-07T20:44:03.341Z,24.30
2022-09-07T20:46:30.823Z,24.00
2022-09-07T20:48:58.172Z,24.10
2022-09-07T20:51:25.065Z,24.20
2022-09-07T20:53:51.806Z,24.20
2022-09-07T20:56:23.495Z,24.20
2022-09-07T20:58:57.853Z,24.20
2022-09-07T21:01:24.961Z,24.20
2022-09-07T21:03:54.327Z,24.20
2022-09-07T21:06:22.293Z,24.10
2022-09-07T21:08:50.528Z,24.10
2022-09-07T21:11:20.612Z,24.10
2022-09-07T21:13:47.797Z,24.10
2022-09-07T21:16:16.176Z,24.00
2022-09-07T21:18:44.271Z,24.00
2022-09-07T21:21:20.389Z,24.00
2022-09-07T21:23:48.042Z,24.00
2022-09-07T21:26:14.825Z,23.90
2022-09-07T21:28:41.521Z,23.90
2022-09-07T21:31:09.213Z,23.90
2022-09-07T21:33:37.541Z,23.80
2022-09-07T21:36:12.499Z,23.80
2022-09-07T21:38:40.975Z,23.80
2022-09-07T21:41:13.703Z,23.80
2022-09-07T21:43:40.836Z,23.80
2022-09-07T21:46:16.604Z,23.70
2022-09-07T21:48:45.405Z,23.80
2022-09-07T21:51:13.457Z,23.80
2022-09-07T21:53:40.656Z,23.70
2022-09-07T21:56:12.640Z,23.70
2022-09-07T21:58:40.022Z,23.70
2022-09-07T22:01:16.824Z,23.70
2022-09-07T22:03:48.524Z,23.60
2022-09-07T22:06:15.296Z,23.60
2022-09-07T22:08:42.652Z,23.60
2022-09-07T22:11:12.239Z,23.60
2022-09-07T22:13:39.359Z,23.60
2022-09-07T22:16:07.310Z,23.60
2022-09-07T22:18:34.546Z,23.60
2022-09-07T22:21:03.028Z,23.70
2022-09-07T22:23:31.708Z,23.70
2022-09-07T22:25:58.928Z,23.70
2022-09-07T22:28:26.039Z,23.70
2022-09-07T22:30:54.666Z,23.60
2022-09-07T22:33:21.637Z,23.60
2022-09-07T22:35:48.686Z,23.70
2022-09-07T22:38:15.456Z,23.60
2022-09-07T22:40:42.225Z,23.60
2022-09-07T22:43:08.941Z,23.70
2022-09-07T22:45:35.669Z,23.70
2022-09-07T22:48:02.479Z,23.70
2022-09-07T22:50:29.167Z,23.70
2022-09-07T22:52:55.848Z,23.70
2022-09-07T22:55:22.512Z,23.70
2022-09-07T22:57:49.175Z,23.70
2022-09-07T23:00:16.137Z,23.70
2022-09-07T23:02:42.967Z,23.70
2022-09-07T23:05:10.148Z,23.70
2022-09-07T23:07:36.912Z,23.80
2022-09-07T23:10:03.955Z,23.80
2022-09-07T23:12:31.201Z,23.70
2022-09-07T23:14:57.900Z,23.70
2022-09-07T23:17:24.567Z,23.70
2022-09-07T23:19:51.239Z,23.70
2022-09-07T23:22:18.085Z,23.70
2022-09-07T23:24:44.771Z,23.70
2022-09-07T23:27:11.485Z,23.70
2022-09-07T23:29:38.316Z,23.70
2022-09-07T23:32:05.052Z,23.70
2022-09-07T23:34:31.745Z,23.70
2022-09-07T23:36:58.417Z,23.70
2022-09-07T23:39:25.095Z,23.70
2022-09-07T23:41:51.780Z,23.70
2022-09-07T23:44:18.544Z,23.70
2022-09-07T23:46:45.279Z,23.70
2022-09-07T23:49:11.981Z,23.70
2022-09-07T23:51:38.821Z,23.70
2022-09-07T23:54:05.631Z,23.70
2022-09-07T23:56:32.630Z,23.70
2022-09-07T23:58:59.320Z,23.60
